createdAt,value
2022-12-31T00:00:00.648Z,13.30
2022-12-31T00:02:28.294Z,13.20
2022-12-31T00:04:55.641Z,13.10
2022-12-31T00:07:23.022Z,13.00
2022-12-31T00:09:50.309Z,13.00
2022-12-31T00:12:17.627Z,13.00
2022-12-31T00:14:44.876Z,13.00
2022-12-31T00:17:12.311Z,13.00
2022-12-31T00:19:39.666Z,13.00
2022-12-31T00:22:06.966Z,13.00
2022-12-31T00:24:35.810Z,13.00
2022-12-31T00:27:03.182Z,13.10
2022-12-31T00:29:30.481Z,13.10
2022-12-31T00:31:57.808Z,13.10
2022-12-31T00:34:25.134Z,13.10
2022-12-31T00:36:52.995Z,13.10
2022-12-31T00:39:20.281Z,13.10
2022-12-31T00:41:47.626Z,13.10
2022-12-31T00:44:14.922Z,13.10
2022-12-31T00:49:09.281Z,13.10
2022-12-31T00:51:36.535Z,13.20
2022-12-31T00:54:04.034Z,13.30
2022-12-31T00:56:32.585Z,13.30
2022-12-31T00:59:00.393Z,13.30
2022-12-31T01:01:34.016Z,13.30
2022-12-31T01:04:08.236Z,13.40
2022-12-31T01:06:35.641Z,13.50
2022-12-31T01:09:03.525Z,13.60
2022-12-31T01:11:30.911Z,13.70
2022-12-31T01:14:10.890Z,13.80
2022-12-31T01:16:45.434Z,13.90
2022-12-31T01:19:15.995Z,13.90
2022-12-31T01:21:44.617Z,13.90
2022-12-31T01:24:12.549Z,13.90
2022-12-31T01:26:40.877Z,14.10
2022-12-31T01:29:10.109Z,14.20
2022-12-31T01:31:38.633Z,14.20
2022-12-31T01:41:21.204Z,14.10
2022-12-31T01:43:56.491Z,14.10
2022-12-31T01:46:43.963Z,14.20
2022-12-31T01:49:13.333Z,14.20
2022-12-31T01:51:42.033Z,14.10
2022-12-31T01:54:12.368Z,14.20
2022-12-31T01:56:41.408Z,14.30
2022-12-31T02:04:15.691Z,14.40
2022-12-31T02:06:48.016Z,14.50
2022-12-31T02:09:15.889Z,14.50
2022-12-31T02:11:43.442Z,14.50
2022-12-31T02:14:20.063Z,14.60
2022-12-31T02:16:59.558Z,14.70
2022-12-31T02:19:41.451Z,14.70
2022-12-31T02:22:32.067Z,14.80
2022-12-31T02:25:30.234Z,14.70
2022-12-31T02:28:37.783Z,14.70
2022-12-31T02:31:29.339Z,14.80
2022-12-31T02:34:02.457Z,14.90
2022-12-31T02:36:36.141Z,15.00
2022-12-31T02:39:06.044Z,15.00
2022-12-31T02:41:51.570Z,15.00
2022-12-31T02:44:35.897Z,15.00
2022-12-31T02:47:09.203Z,15.00
2022-12-31T02:50:17.734Z,15.00
2022-12-31T02:53:12.009Z,14.90
2022-12-31T02:55:52.669Z,14.80
2022-12-31T02:58:56.697Z,14.60
2022-12-31T03:01:50.889Z,14.60
2022-12-31T03:04:35.825Z,14.60
2022-12-31T03:07:05.085Z,14.50
2022-12-31T03:09:32.924Z,14.60
2022-12-31T03:12:20.302Z,14.60
2022-12-31T03:14:47.686Z,14.50
2022-12-31T03:17:15.333Z,14.50
2022-12-31T03:20:01.686Z,14.50
2022-12-31T03:22:29.425Z,14.40
2022-12-31T03:25:25.152Z,14.40
2022-12-31T03:27:53.929Z,14.70
2022-12-31T03:30:22.844Z,14.60
2022-12-31T03:32:51.434Z,14.60
2022-12-31T03:35:21.032Z,14.60
2022-12-31T03:37:49.507Z,14.40
2022-12-31T03:40:18.760Z,14.40
2022-12-31T03:42:46.065Z,14.40
2022-12-31T03:45:13.952Z,14.50
2022-12-31T03:47:41.454Z,14.50
2022-12-31T03:50:11.552Z,14.50
2022-12-31T03:52:39.501Z,14.40
2022-12-31T03:55:08.155Z,14.40
2022-12-31T03:57:35.868Z,14.50
2022-12-31T04:00:08.439Z,14.50
2022-12-31T04:02:36.161Z,14.40
2022-12-31T04:05:03.636Z,14.40
2022-12-31T04:07:30.867Z,14.40
2022-12-31T04:09:58.239Z,14.40
2022-12-31T04:12:25.583Z,14.40
2022-12-31T04:14:52.875Z,14.50
2022-12-31T04:17:20.122Z,14.60
2022-12-31T04:19:47.541Z,14.60
2022-12-31T04:22:15.218Z,14.80
2022-12-31T04:24:43.264Z,14.80
2022-12-31T04:27:12.022Z,14.90
2022-12-31T04:29:39.372Z,14.90
2022-12-31T04:32:07.863Z,14.90
2022-12-31T04:34:35.526Z,15.00
2022-12-31T04:37:03.345Z,15.10
2022-12-31T04:39:30.628Z,15.20
2022-12-31T04:41:57.861Z,15.20
2022-12-31T04:44:25.188Z,15.20
2022-12-31T04:46:53.586Z,15.30
2022-12-31T04:49:21.352Z,15.30
2022-12-31T04:51:48.580Z,15.30
2022-12-31T04:54:16.008Z,15.30
2022-12-31T04:56:43.449Z,15.40
2022-12-31T04:59:11.725Z,15.40
2022-12-31T05:01:39.538Z,15.30
2022-12-31T05:04:06.956Z,15.30
2022-12-31T05:06:34.583Z,15.40
2022-12-31T05:09:01.985Z,15.50
2022-12-31T05:11:29.245Z,15.50
2022-12-31T05:13:56.478Z,15.40
2022-12-31T05:16:23.859Z,15.30
2022-12-31T05:18:51.276Z,15.40
2022-12-31T05:21:21.248Z,15.60
2022-12-31T05:23:49.199Z,15.60
2022-12-31T05:26:17.294Z,15.70
2022-12-31T05:28:45.002Z,15.80
2022-12-31T05:31:13.258Z,15.80
2022-12-31T05:33:40.601Z,15.90
2022-12-31T05:36:08.095Z,15.80
2022-12-31T05:38:36.644Z,15.90
2022-12-31T05:41:06.413Z,15.90
2022-12-31T05:43:34.232Z,15.90
2022-12-31T05:46:03.329Z,15.90
2022-12-31T05:48:31.818Z,15.90
2022-12-31T05:50:59.331Z,16.00
2022-12-31T05:53:26.632Z,15.90
2022-12-31T05:55:53.944Z,15.90
2022-12-31T05:58:21.210Z,16.00
2022-12-31T06:00:48.438Z,15.90
2022-12-31T06:03:15.780Z,15.80
2022-12-31T06:05:43.451Z,15.80
2022-12-31T06:08:12.261Z,15.80
2022-12-31T06:10:40.418Z,15.70
2022-12-31T06:13:08.003Z,15.70
2022-12-31T06:15:40.527Z,15.70
2022-12-31T06:18:07.893Z,15.60
2022-12-31T06:20:38.248Z,15.60
2022-12-31T06:23:05.774Z,15.70
2022-12-31T06:25:34.932Z,15.70
2022-12-31T06:28:02.297Z,15.60
2022-12-31T06:30:29.557Z,15.50
2022-12-31T06:32:56.905Z,15.60
2022-12-31T06:35:24.246Z,15.70
2022-12-31T06:37:52.215Z,15.80
2022-12-31T06:40:19.545Z,15.80
2022-12-31T06:42:47.035Z,15.60
2022-12-31T06:45:14.396Z,15.70
2022-12-31T06:47:41.756Z,16.00
2022-12-31T06:50:09.418Z,16.00
2022-12-31T06:52:36.824Z,16.10
2022-12-31T06:55:05.079Z,16.10
2022-12-31T06:57:32.605Z,16.00
2022-12-31T07:00:00.304Z,15.80
2022-12-31T07:02:38.783Z,15.90
2022-12-31T07:05:34.273Z,15.80
2022-12-31T07:08:01.409Z,16.10
2022-12-31T07:10:37.545Z,16.00
2022-12-31T07:13:28.206Z,16.10
2022-12-31T07:16:13.761Z,16.10
2022-12-31T07:18:53.017Z,16.10
2022-12-31T07:21:33.293Z,16.10
2022-12-31T07:24:01.160Z,16.00
2022-12-31T07:26:37.001Z,15.90
2022-12-31T07:29:16.217Z,15.80
2022-12-31T07:32:05.379Z,15.90
2022-12-31T07:34:51.470Z,15.90
2022-12-31T07:37:41.507Z,15.90
2022-12-31T07:40:20.215Z,15.80
2022-12-31T07:43:13.617Z,15.90
2022-12-31T07:45:58.258Z,15.90
2022-12-31T07:48:27.949Z,15.90
2022-12-31T07:50:56.981Z,15.90
2022-12-31T07:53:25.745Z,16.00
2022-12-31T07:55:59.818Z,16.10
2022-12-31T07:58:45.384Z,16.10
2022-12-31T08:01:16.394Z,16.30
2022-12-31T08:04:16.217Z,16.20
2022-12-31T08:07:04.661Z,16.40
2022-12-31T08:10:14.036Z,16.40
2022-12-31T08:12:46.776Z,16.30
2022-12-31T08:15:16.220Z,16.30
2022-12-31T08:17:44.240Z,16.30
2022-12-31T08:20:16.335Z,16.50
2022-12-31T08:23:20.898Z,16.50
2022-12-31T08:25:51.214Z,16.40
2022-12-31T08:28:23.514Z,16.50
2022-12-31T08:30:56.260Z,16.50
2022-12-31T08:33:42.490Z,16.50
2022-12-31T08:36:19.502Z,16.30
2022-12-31T08:39:08.099Z,16.40
2022-12-31T08:41:55.093Z,16.40
2022-12-31T08:44:51.137Z,16.40
2022-12-31T08:47:41.757Z,16.40
2022-12-31T08:50:15.775Z,16.40
2022-12-31T08:52:43.464Z,16.50
2022-12-31T08:55:16.475Z,16.50
2022-12-31T08:58:17.339Z,16.50
2022-12-31T09:00:45.658Z,16.60
2022-12-31T09:03:27.214Z,16.70
2022-12-31T09:06:06.663Z,16.70
2022-12-31T09:09:06.413Z,16.70
2022-12-31T09:12:00.321Z,16.70
2022-12-31T09:14:39.532Z,16.80
2022-12-31T09:17:45.048Z,16.80
2022-12-31T09:20:22.542Z,16.80
2022-12-31T09:22:50.939Z,16.80
2022-12-31T09:25:21.359Z,16.80
2022-12-31T09:28:06.785Z,16.90
2022-12-31T09:30:50.775Z,16.90
2022-12-31T09:33:20.753Z,16.90
2022-12-31T09:35:57.658Z,16.90
2022-12-31T09:38:35.031Z,16.90
2022-12-31T09:41:14.429Z,16.90
2022-12-31T09:44:03.208Z,16.90
2022-12-31T09:46:49.292Z,16.90
2022-12-31T09:49:25.720Z,16.90
2022-12-31T09:52:18.946Z,16.90
2022-12-31T09:55:23.941Z,16.90
2022-12-31T09:58:23.579Z,17.00
2022-12-31T10:00:57.963Z,17.10
2022-12-31T10:03:30.047Z,17.10
2022-12-31T10:06:26.936Z,17.10
2022-12-31T10:09:02.869Z,17.20
2022-12-31T10:11:48.689Z,17.30
2022-12-31T10:14:35.791Z,17.50
2022-12-31T10:17:27.277Z,17.40
2022-12-31T10:20:16.325Z,17.50
2022-12-31T10:23:02.369Z,17.40
2022-12-31T10:25:51.580Z,17.40
2022-12-31T10:28:50.132Z,17.40
2022-12-31T10:31:36.346Z,17.30
2022-12-31T10:34:14.585Z,17.40
2022-12-31T10:37:05.731Z,17.40
2022-12-31T10:40:04.121Z,17.40
2022-12-31T10:42:55.946Z,17.40
2022-12-31T10:45:54.643Z,17.40
2022-12-31T10:48:46.559Z,17.50
2022-12-31T10:51:53.849Z,17.60
2022-12-31T10:54:26.989Z,17.70
2022-12-31T10:57:31.381Z,17.80
2022-12-31T11:00:18.738Z,17.80
2022-12-31T11:03:10.303Z,17.90
2022-12-31T11:06:17.484Z,17.90
2022-12-31T11:09:01.193Z,18.00
2022-12-31T11:11:34.232Z,18.20
2022-12-31T11:14:30.566Z,18.10
2022-12-31T11:17:36.032Z,17.90
2022-12-31T11:20:30.577Z,17.90
2022-12-31T11:23:19.595Z,17.80
2022-12-31T11:26:18.282Z,17.70
2022-12-31T11:28:54.569Z,17.60
2022-12-31T11:31:33.867Z,17.50
2022-12-31T11:34:25.491Z,17.50
2022-12-31T11:37:01.537Z,17.40
2022-12-31T11:40:10.274Z,17.50
2022-12-31T11:42:56.467Z,17.40
2022-12-31T11:45:38.699Z,17.40
2022-12-31T11:48:31.627Z,17.40
2022-12-31T11:51:37.257Z,17.40
2022-12-31T11:54:24.817Z,17.40
2022-12-31T11:57:05.338Z,17.30
2022-12-31T11:59:32.648Z,17.30
2022-12-31T12:02:01.867Z,17.20
2022-12-31T12:04:30.067Z,17.20
2022-12-31T12:06:57.820Z,16.90
2022-12-31T12:09:34.357Z,16.70
2022-12-31T12:12:04.223Z,16.60
2022-12-31T12:14:44.459Z,16.50
2022-12-31T12:17:32.271Z,16.60
2022-12-31T12:20:17.108Z,16.50
2022-12-31T12:22:53.112Z,16.40
2022-12-31T12:25:23.984Z,16.40
2022-12-31T12:27:51.600Z,16.30
2022-12-31T12:30:24.403Z,16.00
2022-12-31T12:33:04.661Z,15.80
2022-12-31T12:35:35.674Z,15.80
2022-12-31T12:38:06.370Z,15.90
2022-12-31T12:40:34.737Z,16.20
2022-12-31T12:43:03.183Z,16.40
2022-12-31T12:45:51.363Z,16.60
2022-12-31T12:48:30.179Z,16.70
2022-12-31T12:50:58.201Z,16.70
2022-12-31T12:53:44.741Z,16.80
2022-12-31T12:56:18.712Z,16.90
2022-12-31T12:59:27.622Z,16.80
2022-12-31T13:02:19.643Z,16.80
2022-12-31T13:05:27.922Z,16.80
2022-12-31T13:08:10.527Z,16.70
2022-12-31T13:11:03.252Z,16.70
2022-12-31T13:13:54.685Z,16.80
2022-12-31T13:16:52.318Z,16.60
2022-12-31T13:19:30.713Z,16.60
2022-12-31T13:22:05.301Z,16.80
2022-12-31T13:25:03.434Z,16.90
2022-12-31T13:27:42.384Z,17.00
2022-12-31T13:30:25.346Z,17.00
2022-12-31T13:33:14.153Z,16.90
2022-12-31T13:35:49.069Z,16.80
2022-12-31T13:38:34.855Z,16.60
2022-12-31T13:41:09.316Z,16.60
2022-12-31T13:44:04.629Z,16.60
2022-12-31T13:46:46.978Z,16.60
2022-12-31T13:49:21.035Z,16.60
2022-12-31T13:51:51.184Z,16.20
2022-12-31T13:54:58.738Z,15.90
2022-12-31T13:57:32.006Z,15.90
2022-12-31T14:00:04.097Z,15.90
2022-12-31T14:02:52.797Z,16.20
2022-12-31T14:05:36.965Z,16.30
2022-12-31T14:08:06.499Z,16.30
2022-12-31T14:10:41.820Z,16.30
2022-12-31T14:13:46.442Z,16.20
2022-12-31T14:16:43.545Z,16.20
2022-12-31T14:19:27.402Z,16.20
2022-12-31T14:22:10.549Z,16.20
2022-12-31T14:24:51.037Z,16.20
2022-12-31T14:27:36.708Z,16.20
2022-12-31T14:30:15.241Z,16.20
2022-12-31T14:33:16.121Z,16.20
2022-12-31T14:36:14.128Z,16.10
2022-12-31T14:39:02.892Z,16.10
2022-12-31T14:41:57.920Z,16.10
2022-12-31T14:44:34.059Z,15.90
2022-12-31T14:47:13.143Z,15.80
2022-12-31T14:50:15.132Z,15.70
2022-12-31T14:52:52.836Z,15.60
2022-12-31T14:55:30.158Z,15.70
2022-12-31T14:58:27.032Z,15.60
2022-12-31T15:00:55.725Z,15.50
2022-12-31T15:03:41.398Z,15.30
2022-12-31T15:06:53.133Z,15.40
2022-12-31T15:09:57.201Z,15.30
2022-12-31T15:13:02.369Z,15.20
2022-12-31T15:16:00.727Z,15.30
2022-12-31T15:18:50.832Z,15.20
2022-12-31T15:21:47.194Z,15.20
2022-12-31T15:24:23.785Z,15.20
2022-12-31T15:27:03.886Z,15.20
2022-12-31T15:29:34.238Z,15.10
2022-12-31T15:32:04.197Z,15.00
2022-12-31T15:34:33.784Z,14.90
2022-12-31T15:37:03.725Z,14.70
2022-12-31T15:39:30.959Z,14.60
2022-12-31T15:45:02.645Z,14.60
2022-12-31T15:47:36.365Z,14.50
2022-12-31T15:50:15.202Z,14.60
2022-12-31T15:52:48.014Z,14.70
2022-12-31T15:55:22.463Z,14.80
2022-12-31T15:57:50.785Z,14.80
2022-12-31T16:00:21.675Z,14.80
2022-12-31T16:02:52.520Z,14.70
2022-12-31T16:05:23.626Z,14.80
2022-12-31T16:07:59.037Z,14.70
2022-12-31T16:10:32.210Z,14.80
2022-12-31T16:13:00.592Z,14.80
2022-12-31T16:15:30.892Z,14.80
2022-12-31T16:18:05.061Z,14.90
2022-12-31T16:20:34.290Z,15.00
2022-12-31T16:23:03.503Z,15.20
2022-12-31T16:25:33.318Z,15.20
2022-12-31T16:28:02.890Z,15.00
2022-12-31T16:30:37.381Z,15.10
2022-12-31T16:33:10.972Z,15.20
2022-12-31T16:35:38.282Z,15.30
2022-12-31T16:38:15.669Z,15.30
2022-12-31T16:41:04.320Z,15.30
2022-12-31T16:43:38.784Z,15.30
2022-12-31T16:46:17.670Z,15.30
2022-12-31T16:48:56.941Z,15.30
2022-12-31T16:51:37.281Z,15.20
2022-12-31T16:54:04.890Z,15.10
2022-12-31T16:56:36.876Z,15.10
2022-12-31T16:59:14.512Z,15.00
2022-12-31T17:01:42.567Z,15.00
2022-12-31T17:04:12.377Z,14.90
2022-12-31T17:06:39.653Z,14.90
2022-12-31T17:09:12.783Z,15.10
2022-12-31T17:11:45.401Z,15.10
2022-12-31T17:14:18.094Z,15.10
2022-12-31T17:17:16.726Z,15.00
2022-12-31T17:19:47.522Z,15.00
2022-12-31T17:22:35.868Z,15.10
2022-12-31T17:25:05.956Z,15.10
2022-12-31T17:27:34.328Z,15.00
2022-12-31T17:30:40.295Z,15.00
2022-12-31T17:33:07.430Z,15.00
2022-12-31T17:35:36.982Z,15.00
2022-12-31T17:38:22.346Z,14.90
2022-12-31T17:40:52.866Z,15.00
2022-12-31T17:43:22.739Z,14.90
2022-12-31T17:45:54.729Z,14.80
2022-12-31T17:48:24.972Z,14.80
2022-12-31T17:50:57.766Z,14.70
2022-12-31T17:53:25.625Z,14.70
2022-12-31T17:55:55.644Z,14.70
2022-12-31T17:58:29.791Z,14.80
2022-12-31T18:00:58.910Z,14.80
2022-12-31T18:03:26.412Z,14.80
2022-12-31T18:05:53.753Z,14.80
2022-12-31T18:08:21.021Z,14.80
2022-12-31T18:10:48.684Z,14.70
2022-12-31T18:13:26.847Z,14.80
2022-12-31T18:15:55.071Z,14.70
2022-12-31T18:18:35.787Z,14.70
2022-12-31T18:21:06.858Z,14.70
2022-12-31T18:23:46.244Z,14.70
2022-12-31T18:26:15.988Z,14.80
2022-12-31T18:28:43.437Z,14.70
2022-12-31T18:31:16.944Z,14.80
2022-12-31T18:33:44.608Z,14.80
2022-12-31T18:36:14.262Z,14.80
2022-12-31T18:38:41.918Z,14.70
2022-12-31T18:41:28.769Z,14.70
2022-12-31T18:43:56.484Z,14.70
2022-12-31T18:46:25.148Z,14.70
2022-12-31T18:48:52.458Z,14.70
2022-12-31T18:51:29.353Z,14.80
2022-12-31T18:53:59.429Z,14.80
2022-12-31T18:56:27.102Z,15.00
2022-12-31T18:58:54.387Z,15.10
2022-12-31T19:01:24.517Z,15.00
2022-12-31T19:03:51.975Z,14.90
2022-12-31T19:06:19.334Z,14.90
2022-12-31T19:08:46.708Z,14.80
2022-12-31T19:11:15.181Z,14.90
2022-12-31T19:13:42.570Z,14.80
2022-12-31T19:16:10.464Z,14.90
2022-12-31T19:18:37.874Z,15.20
2022-12-31T19:21:05.285Z,15.10
2022-12-31T19:23:32.562Z,15.00
2022-12-31T19:25:59.816Z,15.00
2022-12-31T19:28:28.352Z,14.90
2022-12-31T19:30:55.707Z,14.90
2022-12-31T19:33:23.116Z,14.90
2022-12-31T19:35:50.487Z,14.90
2022-12-31T19:38:22.104Z,15.00
2022-12-31T19:40:50.592Z,15.00
2022-12-31T19:43:20.581Z,15.10
2022-12-31T19:45:49.215Z,15.10
2022-12-31T19:48:30.494Z,15.10
2022-12-31T19:51:00.044Z,15.20
2022-12-31T19:53:28.049Z,15.20
2022-12-31T19:55:55.383Z,15.30
2022-12-31T19:58:28.114Z,15.30
2022-12-31T20:01:02.302Z,15.30
2022-12-31T20:03:32.387Z,15.20
2022-12-31T20:06:06.163Z,15.10
2022-12-31T20:08:35.015Z,15.00
2022-12-31T20:11:17.354Z,15.00
2022-12-31T20:13:45.762Z,15.10
2022-12-31T20:16:15.762Z,15.10
2022-12-31T20:18:44.436Z,15.00
2022-12-31T20:21:23.479Z,15.10
2022-12-31T20:23:52.407Z,15.10
2022-12-31T20:26:21.142Z,15.00
2022-12-31T20:28:48.731Z,15.10
2022-12-31T20:31:18.448Z,15.00
2022-12-31T20:33:46.432Z,15.10
2022-12-31T20:36:15.957Z,15.10
2022-12-31T20:38:43.823Z,15.10
2022-12-31T20:41:13.678Z,15.20
2022-12-31T20:43:41.075Z,15.00
2022-12-31T20:46:15.652Z,15.10
2022-12-31T20:48:44.727Z,15.10
2022-12-31T20:51:13.553Z,15.30
2022-12-31T20:53:52.361Z,15.30
2022-12-31T20:56:19.720Z,15.40
2022-12-31T20:58:47.666Z,15.40
2022-12-31T21:01:15.648Z,15.50
2022-12-31T21:06:33.492Z,15.30
2022-12-31T21:09:03.621Z,15.30
2022-12-31T21:11:49.697Z,15.10
2022-12-31T21:14:17.103Z,15.10
2022-12-31T21:16:44.389Z,14.90
2022-12-31T21:19:11.739Z,14.90
2022-12-31T21:21:39.037Z,15.10
2022-12-31T21:24:06.581Z,15.30
2022-12-31T21:26:34.448Z,15.40
2022-12-31T21:29:01.754Z,15.40
2022-12-31T21:31:29.120Z,15.40
2022-12-31T21:33:56.415Z,15.50
2022-12-31T21:36:23.751Z,15.50
2022-12-31T21:38:51.055Z,15.50
2022-12-31T21:41:36.880Z,15.60
2022-12-31T21:44:04.230Z,15.60
2022-12-31T21:46:31.581Z,15.60
2022-12-31T21:49:00.365Z,15.60
2022-12-31T21:51:28.440Z,15.60
2022-12-31T21:53:56.303Z,15.70
2022-12-31T21:56:24.175Z,15.70
2022-12-31T21:59:17.216Z,15.60
2022-12-31T22:02:03.158Z,15.60
2022-12-31T22:07:17.838Z,15.60
2022-12-31T22:09:45.089Z,15.50
2022-12-31T22:12:12.360Z,15.40
2022-12-31T22:14:39.652Z,15.40
2022-12-31T22:17:26.964Z,15.50
2022-12-31T22:20:25.425Z,15.60
2022-12-31T22:22:41.537Z,15.50
2022-12-31T22:25:09.308Z,15.50
2022-12-31T22:27:36.638Z,15.50
2022-12-31T22:30:04.835Z,15.40
2022-12-31T22:32:32.217Z,15.30
2022-12-31T22:34:59.515Z,15.60
2022-12-31T22:37:55.827Z,15.80
2022-12-31T22:40:14.282Z,15.80
2022-12-31T22:42:41.537Z,15.90
2022-12-31T22:45:10.123Z,15.90
2022-12-31T22:47:37.394Z,15.90
2022-12-31T22:50:05.064Z,15.80
2022-12-31T22:52:32.354Z,15.80
2022-12-31T22:54:59.673Z,15.80
2022-12-31T22:57:26.960Z,15.90
2022-12-31T22:59:54.173Z,15.90
2022-12-31T23:02:21.500Z,15.80
2022-12-31T23:04:48.856Z,15.80
2022-12-31T23:07:16.307Z,15.70
2022-12-31T23:10:01.898Z,15.70
2022-12-31T23:12:29.204Z,15.80
2022-12-31T23:15:14.984Z,15.90
2022-12-31T23:18:00.928Z,15.80
2022-12-31T23:20:47.059Z,15.70
2022-12-31T23:23:16.153Z,15.80
2022-12-31T23:25:48.970Z,15.80
2022-12-31T23:28:25.249Z,15.80
2022-12-31T23:30:53.078Z,15.80
2022-12-31T23:33:23.343Z,15.90
2022-12-31T23:35:50.888Z,15.90
2022-12-31T23:38:18.976Z,15.90
2022-12-31T23:40:46.429Z,15.80
2022-12-31T23:43:21.029Z,15.80
2022-12-31T23:45:50.260Z,15.80
2022-12-31T23:48:17.561Z,15.80
2022-12-31T23:50:50.900Z,15.90
2022-12-31T23:53:20.201Z,15.90
2022-12-31T23:55:47.446Z,15.90
2022-12-31T23:58:15.578Z,15.90
